createdAt,value
2018-02-13T00:00:17.857Z,12.27
2018-02-13T00:00:51.883Z,12.35
2018-02-13T00:01:26.198Z,16.33
2018-02-13T00:02:00.078Z,11.52
2018-02-13T00:02:34.003Z,15.65
2018-02-13T00:03:08.136Z,9.27
2018-02-13T00:03:42.044Z,10.20
2018-02-13T00:04:15.923Z,10.68
2018-02-13T00:04:49.839Z,8.25
2018-02-13T00:05:23.731Z,10.05
2018-02-13T00:05:57.929Z,12.52
2018-02-13T00:06:34.312Z,14.38
2018-02-13T00:07:10.364Z,13.43
2018-02-13T00:07:44.277Z,13.98
2018-02-13T00:08:19.224Z,13.13
2018-02-13T00:08:53.137Z,10.93
2018-02-13T00:09:27.876Z,12.57
2018-02-13T00:10:03.259Z,13.32
2018-02-13T00:10:37.446Z,11.70
2018-02-13T00:11:12.889Z,16.40
2018-02-13T00:11:47.281Z,13.00
2018-02-13T00:12:21.143Z,11.93
2018-02-13T00:12:55.668Z,14.13
2018-02-13T00:13:29.521Z,16.37
2018-02-13T00:14:03.384Z,17.95
2018-02-13T00:14:38.683Z,13.35
2018-02-13T00:15:12.804Z,14.90
2018-02-13T00:15:48.782Z,11.65
2018-02-13T00:16:24.674Z,10.10
2018-02-13T00:16:58.721Z,12.32
2018-02-13T00:17:33.855Z,12.02
2018-02-13T00:18:07.844Z,12.52
2018-02-13T00:18:41.947Z,16.73
2018-02-13T00:19:16.889Z,10.77
2018-02-13T00:19:52.108Z,12.77
2018-02-13T00:20:30.947Z,12.37
2018-02-13T00:21:07.890Z,12.75
2018-02-13T00:21:45.107Z,13.57
2018-02-13T00:22:24.125Z,11.95
2018-02-13T00:23:00.487Z,11.57
2018-02-13T00:23:36.782Z,14.80
2018-02-13T00:24:10.859Z,10.55
2018-02-13T00:24:44.832Z,13.38
2018-02-13T00:25:22.865Z,9.80
2018-02-13T00:25:57.274Z,14.40
2018-02-13T00:26:32.394Z,11.02
2018-02-13T00:27:06.431Z,12.18
2018-02-13T00:27:41.369Z,14.90
2018-02-13T00:28:15.552Z,13.32
2018-02-13T00:28:49.443Z,13.70
2018-02-13T00:29:24.487Z,11.35
2018-02-13T00:29:59.480Z,8.55
2018-02-13T00:30:33.429Z,15.63
2018-02-13T00:31:08.102Z,12.40
2018-02-13T00:31:42.097Z,10.90
2018-02-13T00:32:16.203Z,9.82
2018-02-13T00:32:51.243Z,14.45
2018-02-13T00:33:25.308Z,10.07
2018-02-13T00:33:59.201Z,12.70
2018-02-13T00:34:34.066Z,11.30
2018-02-13T00:35:08.423Z,12.48
2018-02-13T00:35:42.904Z,13.68
2018-02-13T00:36:19.878Z,12.32
2018-02-13T00:36:55.796Z,13.10
2018-02-13T00:37:33.491Z,14.32
2018-02-13T00:38:12.466Z,14.57
2018-02-13T00:38:48.421Z,8.63
2018-02-13T00:39:24.549Z,13.00
2018-02-13T00:39:58.554Z,10.18
2018-02-13T00:40:34.405Z,13.38
2018-02-13T00:41:08.720Z,11.77
2018-02-13T00:41:44.179Z,13.38
2018-02-13T00:42:18.868Z,11.40
2018-02-13T00:42:52.763Z,9.95
2018-02-13T00:43:29.032Z,10.38
2018-02-13T00:44:02.880Z,11.43
2018-02-13T00:44:38.183Z,11.88
2018-02-13T00:45:14.764Z,13.18
2018-02-13T00:46:35.632Z,12.57
2018-02-13T00:47:09.866Z,12.48
2018-02-13T00:47:44.008Z,19.87
2018-02-13T00:48:21.675Z,13.85
2018-02-13T00:49:00.255Z,12.52
2018-02-13T00:49:40.257Z,9.55
2018-02-13T00:50:28.506Z,8.95
2018-02-13T00:51:09.868Z,12.85
2018-02-13T00:51:50.608Z,17.12
2018-02-13T00:52:36.395Z,10.73
2018-02-13T00:53:15.637Z,11.90
2018-02-13T00:53:59.962Z,10.23
2018-02-13T00:54:37.965Z,9.73
2018-02-13T00:55:17.922Z,10.95
2018-02-13T00:55:56.812Z,9.98
2018-02-13T00:56:31.263Z,11.63
2018-02-13T00:57:05.206Z,13.25
2018-02-13T00:57:39.294Z,13.75
2018-02-13T00:58:15.740Z,14.07
2018-02-13T00:58:53.096Z,11.38
2018-02-13T00:59:27.731Z,15.23
2018-02-13T01:00:01.572Z,15.80
2018-02-13T01:00:35.641Z,13.05
2018-02-13T01:01:09.778Z,13.82
2018-02-13T01:01:43.673Z,10.55
2018-02-13T01:02:17.665Z,12.88
2018-02-13T01:02:51.581Z,15.63
2018-02-13T01:03:25.514Z,14.13
2018-02-13T01:03:59.782Z,11.20
2018-02-13T01:04:33.720Z,12.50
2018-02-13T01:05:07.852Z,10.45
2018-02-13T01:05:41.919Z,15.57
2018-02-13T01:06:15.817Z,13.23
2018-02-13T01:06:49.838Z,26.42
2018-02-13T01:07:23.796Z,16.02
2018-02-13T01:07:57.882Z,14.15
2018-02-13T01:08:31.947Z,15.43
2018-02-13T01:09:05.853Z,10.73
2018-02-13T01:09:39.762Z,14.45
2018-02-13T01:10:13.794Z,12.85
2018-02-13T01:10:47.676Z,14.90
2018-02-13T01:11:21.611Z,10.82
2018-02-13T01:11:55.484Z,12.98
2018-02-13T01:12:29.463Z,12.23
2018-02-13T01:13:03.408Z,13.93
2018-02-13T01:13:37.321Z,16.55
2018-02-13T01:14:11.172Z,12.43
2018-02-13T01:14:45.207Z,16.75
2018-02-13T01:15:19.150Z,13.07
2018-02-13T01:15:53.245Z,11.65
2018-02-13T01:16:27.343Z,11.63
2018-02-13T01:17:01.321Z,12.85
2018-02-13T01:17:35.209Z,17.65
2018-02-13T01:18:09.329Z,15.18
2018-02-13T01:18:43.190Z,13.07
2018-02-13T01:19:17.082Z,11.43
2018-02-13T01:19:51.050Z,12.25
2018-02-13T01:20:24.976Z,13.20
2018-02-13T01:20:58.920Z,13.10
2018-02-13T01:21:32.825Z,10.25
2018-02-13T01:22:06.767Z,16.50
2018-02-13T01:22:40.745Z,11.95
2018-02-13T01:23:14.694Z,12.18
2018-02-13T01:23:48.601Z,11.27
2018-02-13T01:24:22.580Z,18.10
2018-02-13T01:24:56.447Z,10.27
2018-02-13T01:25:30.354Z,14.90
2018-02-13T01:26:04.308Z,11.27
2018-02-13T01:26:38.226Z,14.02
2018-02-13T01:27:12.199Z,16.20
2018-02-13T01:27:46.100Z,11.68
2018-02-13T01:28:19.963Z,15.43
2018-02-13T01:28:53.940Z,15.85
2018-02-13T01:29:27.845Z,19.95
2018-02-13T01:30:01.717Z,11.52
2018-02-13T01:30:35.610Z,14.98
2018-02-13T01:31:09.520Z,12.75
2018-02-13T01:31:43.684Z,12.30
2018-02-13T01:32:17.565Z,13.82
2018-02-13T01:32:51.535Z,11.63
2018-02-13T01:33:25.633Z,11.32
2018-02-13T01:33:59.545Z,12.32
2018-02-13T01:34:33.449Z,11.15
2018-02-13T01:35:07.444Z,13.32
2018-02-13T01:35:41.365Z,13.07
2018-02-13T01:36:15.210Z,14.68
2018-02-13T01:36:49.107Z,17.15
2018-02-13T01:37:23.012Z,15.38
2018-02-13T01:37:57.037Z,14.63
2018-02-13T01:38:31.017Z,17.00
2018-02-13T01:39:05.041Z,15.55
2018-02-13T01:39:38.992Z,11.82
2018-02-13T01:40:12.887Z,11.27
2018-02-13T01:40:46.798Z,13.27
2018-02-13T01:41:20.682Z,16.37
2018-02-13T01:41:54.850Z,14.48
2018-02-13T01:42:28.719Z,14.13
2018-02-13T01:43:02.710Z,13.77
2018-02-13T01:43:36.626Z,12.45
2018-02-13T01:44:10.534Z,14.23
2018-02-13T01:44:44.501Z,13.23
2018-02-13T01:45:18.544Z,13.10
2018-02-13T01:45:52.927Z,17.67
2018-02-13T01:46:26.826Z,15.23
2018-02-13T01:47:00.868Z,14.80
2018-02-13T01:47:34.926Z,13.77
2018-02-13T01:48:08.817Z,13.65
2018-02-13T01:48:42.749Z,15.60
2018-02-13T01:49:16.685Z,14.07
2018-02-13T01:49:50.670Z,12.82
2018-02-13T01:50:25.488Z,13.30
2018-02-13T01:50:59.436Z,15.73
2018-02-13T01:51:33.385Z,14.43
2018-02-13T01:52:07.390Z,17.83
2018-02-13T01:52:41.324Z,12.73
2018-02-13T01:53:15.288Z,16.37
2018-02-13T01:53:49.208Z,15.10
2018-02-13T01:54:23.101Z,16.05
2018-02-13T01:54:57.056Z,10.77
2018-02-13T01:55:31.004Z,13.40
2018-02-13T01:56:04.874Z,15.68
2018-02-13T01:56:38.969Z,14.18
2018-02-13T01:57:13.172Z,19.12
2018-02-13T01:57:47.118Z,14.60
2018-02-13T01:58:21.258Z,15.75
2018-02-13T01:58:55.341Z,15.35
2018-02-13T01:59:29.222Z,14.05
2018-02-13T02:00:03.287Z,14.82
2018-02-13T02:00:37.231Z,16.70
2018-02-13T02:01:11.220Z,16.48
2018-02-13T02:01:45.120Z,16.48
2018-02-13T02:02:21.039Z,16.48
2018-02-13T02:02:54.913Z,18.77
2018-02-13T02:03:28.813Z,15.45
2018-02-13T02:04:02.700Z,19.10
2018-02-13T02:04:36.852Z,15.82
2018-02-13T02:05:10.733Z,14.15
2018-02-13T02:05:44.731Z,17.55
2018-02-13T02:06:18.656Z,13.05
2018-02-13T02:06:52.733Z,13.77
2018-02-13T02:07:26.628Z,14.98
2018-02-13T02:08:00.541Z,15.82
2018-02-13T02:08:35.442Z,14.40
2018-02-13T02:09:09.352Z,16.58
2018-02-13T02:09:43.262Z,20.90
2018-02-13T02:10:17.999Z,16.98
2018-02-13T02:10:51.972Z,19.00
2018-02-13T02:11:26.218Z,16.77
2018-02-13T02:12:00.137Z,22.02
2018-02-13T02:12:34.025Z,17.12
2018-02-13T02:13:07.930Z,17.58
2018-02-13T02:13:41.961Z,12.18
2018-02-13T02:14:16.054Z,16.55
2018-02-13T02:14:50.127Z,18.27
2018-02-13T02:15:24.008Z,15.13
2018-02-13T02:15:58.055Z,14.63
2018-02-13T02:16:32.186Z,18.08
2018-02-13T02:17:06.098Z,16.23
2018-02-13T02:17:40.020Z,14.15
2018-02-13T02:18:13.897Z,19.12
2018-02-13T02:18:47.954Z,14.85
2018-02-13T02:19:21.937Z,18.25
2018-02-13T02:19:55.844Z,14.45
2018-02-13T02:20:29.701Z,17.83
2018-02-13T02:21:03.692Z,17.33
2018-02-13T02:21:37.573Z,16.02
2018-02-13T02:22:11.450Z,13.60
2018-02-13T02:22:45.421Z,15.05
2018-02-13T02:23:19.276Z,14.38
2018-02-13T02:23:53.188Z,14.20
2018-02-13T02:24:27.268Z,15.77
2018-02-13T02:25:01.189Z,16.55
2018-02-13T02:25:35.098Z,18.15
2018-02-13T02:26:08.957Z,18.95
2018-02-13T02:26:42.879Z,15.93
2018-02-13T02:27:16.758Z,15.60
2018-02-13T02:27:50.627Z,17.37
2018-02-13T02:28:24.648Z,20.15
2018-02-13T02:28:58.531Z,17.02
2018-02-13T02:29:32.441Z,15.07
2018-02-13T02:30:06.297Z,12.70
2018-02-13T02:30:40.502Z,17.73
2018-02-13T02:31:14.519Z,23.48
2018-02-13T02:31:48.412Z,17.02
2018-02-13T02:32:22.344Z,16.70
2018-02-13T02:32:56.491Z,18.80
2018-02-13T02:33:30.349Z,16.98
2018-02-13T02:34:04.276Z,16.30
2018-02-13T02:34:38.167Z,17.85
2018-02-13T02:35:12.086Z,19.45
2018-02-13T02:35:45.983Z,20.05
2018-02-13T02:36:19.858Z,22.13
2018-02-13T02:36:53.749Z,18.65
2018-02-13T02:37:27.748Z,17.08
2018-02-13T02:38:01.710Z,19.58
2018-02-13T02:38:35.640Z,19.33
2018-02-13T02:39:09.705Z,14.70
2018-02-13T02:39:43.576Z,18.05
2018-02-13T02:40:17.482Z,17.02
2018-02-13T02:40:51.370Z,22.42
2018-02-13T02:41:25.315Z,18.30
2018-02-13T02:41:59.206Z,17.95
2018-02-13T02:42:38.950Z,14.10
2018-02-13T02:43:12.913Z,16.73
2018-02-13T02:43:46.800Z,16.75
2018-02-13T02:44:21.023Z,17.75
2018-02-13T02:44:55.000Z,16.35
2018-02-13T02:45:29.113Z,18.12
2018-02-13T02:46:03.262Z,18.67
2018-02-13T02:46:37.145Z,16.50
2018-02-13T02:47:11.028Z,17.20
2018-02-13T02:47:45.808Z,16.87
2018-02-13T02:48:20.594Z,20.17
2018-02-13T02:48:54.780Z,17.87
2018-02-13T02:49:28.868Z,18.20
2018-02-13T02:50:02.764Z,16.85
2018-02-13T02:50:36.646Z,15.77
2018-02-13T02:51:10.536Z,17.35
2018-02-13T02:51:44.431Z,17.20
2018-02-13T02:52:18.409Z,17.70
2018-02-13T02:52:52.299Z,16.48
2018-02-13T02:53:26.469Z,16.00
2018-02-13T02:54:00.334Z,18.27
2018-02-13T02:54:34.421Z,18.33
2018-02-13T02:55:08.478Z,17.42
2018-02-13T02:55:42.360Z,18.08
2018-02-13T02:56:16.452Z,21.05
2018-02-13T02:56:50.462Z,17.15
2018-02-13T02:57:24.372Z,19.05
2018-02-13T02:57:58.224Z,20.12
2018-02-13T02:58:32.193Z,18.95
2018-02-13T02:59:06.152Z,21.17
2018-02-13T02:59:40.129Z,19.08
2018-02-13T03:00:14.017Z,17.12
2018-02-13T03:00:47.940Z,21.20
2018-02-13T03:01:22.524Z,17.67
2018-02-13T03:01:56.853Z,18.12
2018-02-13T03:02:30.939Z,19.33
2018-02-13T03:03:04.922Z,18.20
2018-02-13T03:03:39.118Z,21.65
2018-02-13T03:04:12.997Z,21.90
2018-02-13T03:04:46.992Z,21.55
2018-02-13T03:05:20.989Z,17.42
2018-02-13T03:05:54.944Z,20.85
2018-02-13T03:06:28.939Z,21.45
2018-02-13T03:07:02.914Z,19.62
2018-02-13T03:07:36.815Z,18.80
2018-02-13T03:08:10.916Z,23.15
2018-02-13T03:08:44.805Z,23.38
2018-02-13T03:09:18.710Z,18.12
2018-02-13T03:09:52.941Z,20.85
2018-02-13T03:10:27.016Z,20.92
2018-02-13T03:11:00.965Z,18.62
2018-02-13T03:11:34.982Z,23.87
2018-02-13T03:12:09.005Z,20.45
2018-02-13T03:12:42.933Z,20.40
2018-02-13T03:13:17.137Z,19.90
2018-02-13T03:13:51.054Z,22.48
2018-02-13T03:14:24.965Z,20.73
2018-02-13T03:14:58.852Z,20.48
2018-02-13T03:15:32.793Z,19.80
2018-02-13T03:16:06.880Z,22.48
2018-02-13T03:16:40.929Z,22.85
2018-02-13T03:17:15.541Z,28.17
2018-02-13T03:17:49.639Z,23.27
2018-02-13T03:18:23.689Z,17.45
2018-02-13T03:18:57.557Z,20.48
2018-02-13T03:19:31.612Z,20.00
2018-02-13T03:20:05.701Z,21.42
2018-02-13T03:20:39.604Z,20.58
2018-02-13T03:21:13.555Z,24.45
2018-02-13T03:21:47.432Z,26.83
2018-02-13T03:22:21.399Z,26.42
2018-02-13T03:22:55.343Z,19.40
2018-02-13T03:23:29.381Z,19.17
2018-02-13T03:24:03.315Z,19.33
2018-02-13T03:24:37.194Z,21.87
2018-02-13T03:25:11.068Z,18.58
2018-02-13T03:25:45.043Z,20.10
2018-02-13T03:26:19.000Z,19.70
2018-02-13T03:26:52.939Z,20.98
2018-02-13T03:27:26.840Z,20.20
2018-02-13T03:28:00.700Z,22.02
2018-02-13T03:28:34.577Z,24.48
2018-02-13T03:29:08.609Z,19.10
2018-02-13T03:29:42.567Z,20.27
2018-02-13T03:30:16.978Z,22.55
2018-02-13T03:30:50.952Z,22.35
2018-02-13T03:31:24.888Z,21.48
2018-02-13T03:31:58.793Z,23.85
2018-02-13T03:32:32.694Z,21.05
2018-02-13T03:33:06.952Z,18.48
2018-02-13T03:33:40.921Z,25.70
2018-02-13T03:34:14.845Z,16.00
2018-02-13T03:34:48.942Z,20.92
2018-02-13T03:35:22.879Z,20.75
2018-02-13T03:35:56.774Z,23.35
2018-02-13T03:36:31.255Z,21.20
2018-02-13T03:37:05.165Z,21.25
2018-02-13T03:37:39.021Z,21.45
2018-02-13T03:38:13.186Z,23.52
2018-02-13T03:38:47.125Z,24.48
2018-02-13T03:39:21.137Z,22.92
2018-02-13T03:39:55.021Z,18.95
2018-02-13T03:40:29.172Z,21.42
2018-02-13T03:41:03.121Z,27.60
2018-02-13T03:41:37.020Z,22.35
2018-02-13T03:42:11.168Z,20.85
2018-02-13T03:42:45.134Z,18.52
2018-02-13T03:43:19.023Z,24.92
2018-02-13T03:43:52.948Z,22.40
2018-02-13T03:44:26.841Z,20.83
2018-02-13T03:45:00.760Z,21.70
2018-02-13T03:45:34.673Z,22.60
2018-02-13T03:46:08.584Z,24.87
2018-02-13T03:46:42.472Z,20.40
2018-02-13T03:47:16.442Z,22.05
2018-02-13T03:47:50.447Z,22.45
2018-02-13T03:48:24.412Z,27.42
2018-02-13T03:48:58.310Z,25.85
2018-02-13T03:49:32.253Z,27.25
2018-02-13T03:50:06.114Z,24.23
2018-02-13T03:50:40.104Z,22.62
2018-02-13T03:51:14.164Z,21.45
2018-02-13T03:51:48.090Z,22.30
2018-02-13T03:52:22.054Z,21.83
2018-02-13T03:52:55.925Z,25.80
2018-02-13T03:53:29.864Z,24.02
2018-02-13T03:54:03.821Z,24.67
2018-02-13T03:54:37.990Z,24.17
2018-02-13T03:55:11.957Z,24.08
2018-02-13T03:55:45.904Z,26.42
2018-02-13T03:56:19.921Z,20.60
2018-02-13T03:56:53.872Z,24.20
2018-02-13T03:57:27.861Z,25.37
2018-02-13T03:58:01.892Z,23.55
2018-02-13T03:58:35.969Z,23.52
2018-02-13T03:59:09.934Z,25.25
2018-02-13T03:59:43.877Z,22.98
2018-02-13T04:00:17.816Z,24.63
2018-02-13T04:00:51.855Z,21.67
2018-02-13T04:01:25.932Z,28.80
2018-02-13T04:01:59.947Z,24.67
2018-02-13T04:02:34.002Z,26.67
2018-02-13T04:03:07.926Z,29.75
2018-02-13T04:03:41.844Z,25.98
2018-02-13T04:04:15.816Z,26.15
2018-02-13T04:04:49.860Z,28.15
2018-02-13T04:05:24.322Z,27.98
2018-02-13T04:05:58.290Z,26.90
2018-02-13T04:06:32.181Z,26.30
2018-02-13T04:07:06.539Z,27.75
2018-02-13T04:07:40.609Z,26.83
2018-02-13T04:08:14.688Z,26.65
2018-02-13T04:08:48.590Z,27.35
2018-02-13T04:09:22.754Z,25.40
2018-02-13T04:09:56.851Z,30.52
2018-02-13T04:10:30.776Z,27.60
2018-02-13T04:11:04.806Z,25.98
2018-02-13T04:11:38.788Z,26.02
2018-02-13T04:12:12.829Z,24.08
2018-02-13T04:12:46.736Z,24.35
2018-02-13T04:13:20.835Z,29.15
2018-02-13T04:13:55.074Z,25.15
2018-02-13T04:14:29.184Z,22.95
2018-02-13T04:15:03.082Z,28.17
2018-02-13T04:15:36.984Z,24.85
2018-02-13T04:16:11.128Z,25.15
2018-02-13T04:16:45.069Z,25.67
2018-02-13T04:17:19.067Z,23.87
2018-02-13T04:17:52.954Z,24.15
2018-02-13T04:18:26.963Z,22.77
2018-02-13T04:19:00.934Z,21.10
2018-02-13T04:19:34.955Z,25.73
2018-02-13T04:20:08.860Z,29.27
2018-02-13T04:20:42.828Z,24.12
2018-02-13T04:21:16.740Z,25.08
2018-02-13T04:21:50.613Z,24.33
2018-02-13T04:22:24.740Z,21.42
2018-02-13T04:22:58.691Z,26.30
2018-02-13T04:23:32.862Z,26.75
2018-02-13T04:24:06.780Z,24.08
2018-02-13T04:24:41.022Z,28.83
2018-02-13T04:25:14.925Z,27.50
2018-02-13T04:25:48.948Z,24.80
2018-02-13T04:26:22.857Z,32.67
2018-02-13T04:26:56.744Z,26.12
2018-02-13T04:27:30.717Z,26.85
2018-02-13T04:28:04.704Z,27.52
2018-02-13T04:28:38.699Z,23.05
2018-02-13T04:29:12.788Z,25.42
2018-02-13T04:29:46.811Z,28.35
2018-02-13T04:30:20.832Z,28.85
2018-02-13T04:30:54.821Z,27.33
2018-02-13T04:31:28.792Z,25.30
2018-02-13T04:32:02.681Z,27.37
2018-02-13T04:32:36.896Z,24.67
2018-02-13T04:33:11.711Z,28.65
2018-02-13T04:33:45.684Z,30.25
2018-02-13T04:34:19.595Z,31.35
2018-02-13T04:34:53.484Z,30.60
2018-02-13T04:35:27.395Z,25.58
2018-02-13T04:36:01.491Z,24.98
2018-02-13T04:36:35.425Z,28.70
2018-02-13T04:37:09.339Z,28.42
2018-02-13T04:37:43.445Z,31.15
2018-02-13T04:38:17.345Z,28.65
2018-02-13T04:38:51.306Z,31.75
2018-02-13T04:39:25.282Z,28.65
2018-02-13T04:39:59.231Z,27.20
2018-02-13T04:40:33.292Z,25.70
2018-02-13T04:41:07.189Z,32.72
2018-02-13T04:41:41.187Z,29.17
2018-02-13T04:42:15.144Z,28.83
2018-02-13T04:42:49.030Z,31.30
2018-02-13T04:43:23.079Z,26.77
2018-02-13T04:43:56.982Z,31.87
2018-02-13T04:44:31.068Z,33.13
2018-02-13T04:45:05.201Z,28.85
2018-02-13T04:45:39.225Z,30.88
2018-02-13T04:46:13.222Z,29.42
2018-02-13T04:46:47.152Z,29.73
2018-02-13T04:47:21.096Z,26.15
2018-02-13T04:47:54.956Z,25.67
2018-02-13T04:48:28.874Z,27.65
2018-02-13T04:49:02.796Z,29.00
2018-02-13T04:49:36.741Z,29.83
2018-02-13T04:50:10.624Z,31.27
2018-02-13T04:50:44.517Z,28.35
2018-02-13T04:51:18.480Z,26.73
2018-02-13T04:51:52.377Z,30.30
2018-02-13T04:52:26.316Z,31.65
2018-02-13T04:53:00.221Z,30.83
2018-02-13T04:53:34.152Z,29.27
2018-02-13T04:54:08.029Z,26.50
2018-02-13T04:54:42.104Z,28.65
2018-02-13T04:55:16.061Z,29.52
2018-02-13T04:55:50.195Z,27.77
2018-02-13T04:56:24.097Z,32.97
2018-02-13T04:56:57.984Z,38.20
2018-02-13T04:57:32.003Z,26.27
2018-02-13T04:58:06.060Z,28.75
2018-02-13T04:58:39.977Z,32.70
2018-02-13T04:59:13.963Z,29.33
2018-02-13T04:59:47.857Z,30.75
2018-02-13T05:00:21.907Z,27.27
2018-02-13T05:00:56.034Z,33.42
2018-02-13T05:01:30.064Z,28.77
2018-02-13T05:02:04.165Z,30.37
2018-02-13T05:02:38.048Z,27.67
2018-02-13T05:03:11.953Z,35.70
2018-02-13T05:03:45.912Z,29.45
2018-02-13T05:04:19.822Z,29.60
2018-02-13T05:04:53.808Z,31.95
2018-02-13T05:05:27.692Z,29.40
2018-02-13T05:06:01.590Z,25.70
2018-02-13T05:06:35.581Z,32.05
2018-02-13T05:07:09.499Z,32.38
2018-02-13T05:07:43.384Z,34.78
2018-02-13T05:08:17.316Z,31.62
2018-02-13T05:08:51.225Z,34.50
2018-02-13T05:09:25.193Z,29.42
2018-02-13T05:09:59.148Z,30.08
2018-02-13T05:10:33.071Z,36.75
2018-02-13T05:11:06.992Z,28.23
2018-02-13T05:11:40.937Z,29.87
2018-02-13T05:12:14.834Z,27.17
2018-02-13T05:12:48.877Z,31.75
2018-02-13T05:13:22.764Z,36.80
2018-02-13T05:13:56.667Z,34.33
2018-02-13T05:14:30.582Z,31.85
2018-02-13T05:15:04.581Z,39.03
2018-02-13T05:15:38.810Z,29.48
2018-02-13T05:16:12.675Z,30.90
2018-02-13T05:16:46.602Z,31.30
2018-02-13T05:17:20.605Z,30.58
2018-02-13T05:17:54.562Z,30.05
2018-02-13T05:18:28.603Z,27.33
2018-02-13T05:19:02.559Z,36.97
2018-02-13T05:19:36.493Z,32.20
2018-02-13T05:20:10.460Z,29.30
2018-02-13T05:20:44.588Z,31.27
2018-02-13T05:21:19.020Z,31.50
2018-02-13T05:21:52.960Z,31.17
2018-02-13T05:22:26.857Z,32.05
2018-02-13T05:23:00.848Z,31.52
2018-02-13T05:23:34.779Z,30.67
2018-02-13T05:24:08.737Z,29.87
2018-02-13T05:24:42.756Z,32.42
2018-02-13T05:25:16.732Z,30.12
2018-02-13T05:25:50.952Z,33.65
2018-02-13T05:26:24.950Z,33.65
2018-02-13T05:26:58.863Z,32.53
2018-02-13T05:27:32.961Z,32.85
2018-02-13T05:28:07.273Z,32.90
2018-02-13T05:28:41.249Z,36.80
2018-02-13T05:29:15.325Z,35.03
2018-02-13T05:29:49.347Z,32.83
2018-02-13T05:30:23.225Z,34.97
2018-02-13T05:30:57.089Z,28.80
2018-02-13T05:31:30.970Z,34.28
2018-02-13T05:32:04.892Z,38.08
2018-02-13T05:32:38.873Z,36.70
2018-02-13T05:33:13.286Z,32.53
2018-02-13T05:33:47.205Z,34.22
2018-02-13T05:34:21.154Z,34.53
2018-02-13T05:34:55.053Z,31.73
2018-02-13T05:35:29.001Z,31.23
2018-02-13T05:36:02.857Z,33.05
2018-02-13T05:36:36.902Z,34.58
2018-02-13T05:37:10.793Z,36.25
2018-02-13T05:37:44.682Z,36.95
2018-02-13T05:38:18.622Z,35.90
2018-02-13T05:38:52.620Z,38.33
2018-02-13T05:39:26.579Z,34.95
2018-02-13T05:40:00.491Z,37.28
2018-02-13T05:40:34.479Z,39.72
2018-02-13T05:41:08.399Z,37.25
2018-02-13T05:41:42.329Z,39.75
2018-02-13T05:42:16.256Z,35.05
2018-02-13T05:42:50.187Z,37.03
2018-02-13T05:43:24.164Z,34.83
2018-02-13T05:43:58.119Z,38.85
2018-02-13T05:44:32.104Z,38.53
2018-02-13T05:45:06.051Z,35.15
2018-02-13T05:45:40.076Z,35.70
2018-02-13T05:46:14.013Z,29.48
2018-02-13T05:46:47.890Z,33.58
2018-02-13T05:47:22.349Z,31.92
2018-02-13T05:47:56.332Z,31.80
2018-02-13T05:48:30.293Z,34.70
2018-02-13T05:49:04.162Z,35.83
2018-02-13T05:49:38.085Z,40.85
2018-02-13T05:50:12.194Z,36.13
2018-02-13T05:50:46.043Z,37.22
2018-02-13T05:51:19.933Z,37.88
2018-02-13T05:51:53.863Z,32.67
2018-02-13T05:52:28.687Z,37.55
2018-02-13T05:53:02.765Z,36.50
2018-02-13T05:53:36.832Z,38.15
2018-02-13T05:54:10.811Z,37.80
2018-02-13T05:54:45.018Z,33.30
2018-02-13T05:55:18.905Z,36.33
2018-02-13T05:55:52.860Z,39.33
2018-02-13T05:56:26.859Z,42.38
2018-02-13T05:57:00.798Z,33.33
2018-02-13T05:57:34.925Z,39.22
2018-02-13T05:58:08.866Z,37.80
2018-02-13T05:58:42.804Z,37.67
2018-02-13T05:59:16.663Z,31.85
2018-02-13T05:59:50.673Z,33.80
2018-02-13T06:00:24.873Z,38.67
2018-02-13T06:00:59.276Z,35.40
2018-02-13T06:01:33.447Z,34.33
2018-02-13T06:02:07.475Z,31.70
2018-02-13T06:02:41.416Z,37.03
2018-02-13T06:03:15.438Z,39.50
2018-02-13T06:03:49.347Z,38.28
2018-02-13T06:04:23.264Z,39.65
2018-02-13T06:04:57.455Z,42.38
2018-02-13T06:05:31.526Z,32.22
2018-02-13T06:06:05.493Z,35.95
2018-02-13T06:06:39.444Z,39.75
2018-02-13T06:07:13.441Z,36.55
2018-02-13T06:07:47.332Z,33.97
2018-02-13T06:08:21.227Z,41.25
2018-02-13T06:08:55.124Z,35.28
2018-02-13T06:09:29.227Z,36.47
2018-02-13T06:10:03.327Z,35.05
2018-02-13T06:10:37.264Z,36.75
2018-02-13T06:11:11.218Z,39.30
2018-02-13T06:11:45.948Z,36.42
2018-02-13T06:12:20.044Z,36.65
2018-02-13T06:12:53.949Z,43.85
2018-02-13T06:13:28.403Z,46.53
2018-02-13T06:14:02.300Z,39.75
2018-02-13T06:14:36.221Z,45.80
2018-02-13T06:15:10.193Z,37.28
2018-02-13T06:15:44.188Z,30.27
2018-02-13T06:16:18.595Z,37.20
2018-02-13T06:16:52.477Z,40.28
2018-02-13T06:17:33.084Z,28.73
2018-02-13T06:18:07.011Z,35.63
2018-02-13T06:18:41.028Z,34.13
2018-02-13T06:19:15.129Z,36.20
2018-02-13T06:19:49.026Z,35.88
2018-02-13T06:20:22.971Z,38.35
2018-02-13T06:20:56.900Z,37.63
2018-02-13T06:21:30.813Z,44.30
2018-02-13T06:22:04.686Z,34.83
2018-02-13T06:22:38.605Z,38.78
2018-02-13T06:23:12.547Z,41.80
2018-02-13T06:23:46.646Z,41.63
2018-02-13T06:24:20.644Z,41.25
2018-02-13T06:24:54.645Z,34.10
2018-02-13T06:25:28.648Z,37.63
2018-02-13T06:26:02.538Z,43.38
2018-02-13T06:26:36.420Z,38.25
2018-02-13T06:27:10.310Z,37.22
2018-02-13T06:27:45.051Z,45.00
2018-02-13T06:28:18.957Z,41.75
2018-02-13T06:28:52.908Z,38.72
2018-02-13T06:29:26.855Z,37.25
2018-02-13T06:30:01.015Z,36.78
2018-02-13T06:30:35.255Z,35.55
2018-02-13T06:31:09.175Z,35.70
2018-02-13T06:31:43.073Z,38.88
2018-02-13T06:32:17.000Z,42.20
2018-02-13T06:32:50.961Z,39.03
2018-02-13T06:33:24.875Z,40.25
2018-02-13T06:33:58.888Z,41.13
2018-02-13T06:34:32.812Z,41.28
2018-02-13T06:35:06.825Z,38.95
2018-02-13T06:35:40.815Z,51.83
2018-02-13T06:36:14.778Z,42.72
2018-02-13T06:36:48.735Z,40.80
2018-02-13T06:37:22.913Z,39.85
2018-02-13T06:37:56.803Z,40.42
2018-02-13T06:38:30.821Z,36.67
2018-02-13T06:39:04.719Z,40.85
2018-02-13T06:39:38.588Z,38.25
2018-02-13T06:40:12.479Z,41.58
2018-02-13T06:40:46.606Z,39.35
2018-02-13T06:41:20.649Z,34.38
2018-02-13T06:41:54.764Z,40.70
2018-02-13T06:42:28.650Z,38.03
2018-02-13T06:43:02.676Z,32.95
2018-02-13T06:43:36.566Z,35.15
2018-02-13T06:44:10.518Z,45.38
2018-02-13T06:44:44.439Z,37.63
2018-02-13T06:45:18.390Z,31.65
2018-02-13T06:45:52.289Z,38.80
2018-02-13T06:46:26.364Z,39.65
2018-02-13T06:47:00.511Z,41.53
2018-02-13T06:47:34.500Z,37.80
2018-02-13T06:48:08.411Z,39.03
2018-02-13T06:48:42.306Z,42.15
2018-02-13T06:49:16.197Z,38.95
2018-02-13T06:49:50.096Z,37.13
2018-02-13T06:50:23.969Z,40.83
2018-02-13T06:50:57.943Z,39.58
2018-02-13T06:51:31.813Z,37.55
2018-02-13T06:52:05.724Z,36.40
2018-02-13T06:52:39.576Z,41.90
2018-02-13T06:53:13.470Z,38.65
2018-02-13T06:53:47.416Z,39.67
2018-02-13T06:54:21.301Z,40.75
2018-02-13T06:54:55.301Z,39.70
2018-02-13T06:55:29.250Z,45.35
2018-02-13T06:56:03.237Z,39.08
2018-02-13T06:56:37.146Z,32.92
2018-02-13T06:57:11.136Z,34.95
2018-02-13T06:57:44.975Z,37.35
2018-02-13T06:58:18.888Z,32.33
2018-02-13T06:58:52.822Z,38.17
2018-02-13T06:59:26.706Z,39.92
2018-02-13T07:00:00.580Z,39.53
2018-02-13T07:00:41.319Z,38.88
2018-02-13T07:01:15.540Z,35.70
2018-02-13T07:01:49.409Z,38.08
2018-02-13T07:02:23.514Z,40.55
2018-02-13T07:02:57.411Z,41.70
2018-02-13T07:03:31.478Z,36.85
2018-02-13T07:04:05.510Z,38.85
2018-02-13T07:04:39.404Z,37.55
2018-02-13T07:05:13.384Z,38.83
2018-02-13T07:05:47.260Z,40.85
2018-02-13T07:06:21.225Z,37.50
2018-02-13T07:06:55.158Z,44.92
2018-02-13T07:07:29.105Z,37.58
2018-02-13T07:08:02.996Z,42.88
2018-02-13T07:08:36.909Z,36.45
2018-02-13T07:09:11.092Z,45.78
2018-02-13T07:09:45.044Z,36.72
2018-02-13T07:10:18.952Z,36.17
2018-02-13T07:10:52.865Z,40.95
2018-02-13T07:11:26.804Z,39.65
2018-02-13T07:12:00.697Z,33.80
2018-02-13T07:12:34.564Z,37.20
2018-02-13T07:13:08.453Z,40.22
2018-02-13T07:13:42.314Z,37.60
2018-02-13T07:14:16.216Z,37.75
2018-02-13T07:14:50.313Z,43.22
2018-02-13T07:15:24.231Z,44.20
2018-02-13T07:15:58.109Z,33.60
2018-02-13T07:16:32.107Z,33.08
2018-02-13T07:17:05.997Z,36.33
2018-02-13T07:17:39.938Z,44.13
2018-02-13T07:18:13.965Z,43.30
2018-02-13T07:18:47.882Z,33.63
2018-02-13T07:19:21.954Z,37.35
2018-02-13T07:19:55.832Z,38.88
2018-02-13T07:20:29.953Z,41.03
2018-02-13T07:21:03.896Z,41.72
2018-02-13T07:21:37.779Z,38.38
2018-02-13T07:22:11.686Z,37.17